Guernsey Airport

Airport
ICAO code: 
EGJB
IATA Code: 
GCI
Summary
ICAO Region: 
EUR
Territory: 
Location: 
Forest, Guernsey
Serving: 
St. Peter Port
Elevation: 
336 ft
Coordinates: 
Aerial View: 
49° 26' 3.045" N, 2° 36' 3.132" W
Metar
Observation
EGJB 200950Z 32007KT 9999 VCSH FEW005 12/10 Q1020
Station
Guernsey Airport
Date/Time
2022-05-20 09:50:00
Wind direction
320°
Wind speed
07 kts
Lowest cloud amount
few clouds
Temperature
12°C
Dew point
10°C
Humidity
87%
QNH
1020 hPa
Weather condition
in vicinity: showers

Description

Guernsey Airport is the only one on the Channel Island of Guernsey, a self-governing British Crown Dependency. It is located 2.5 nm west south west of St. Peter Port, the Island's main town.

Climatology

Temperate Marine climate/Oceanic climate (Köppen climate classification Cfb) - Moderately cool summer and comparatively warm winter.

Runways

Designator Length Width Surface Rops
9/27 1463 45 ASP Yes/Yes
Airport map: 
Aerial View: 

Accidents and Serious Incidents at or in the vicinity of EGJB

SKYbrary Partners:

Safety knowledge contributed by: